Palisades, Idaho
Current Conditions -  °F | °C
As of 12:56 PM on Sunday 25 Jan 2015 (Local Time) from KDIJ Reporting Station
Few Clouds Few Clouds  
Wind Chill: 28°   Ceiling: Unl
Heat Index: 37°   Visibility: 10mi
Dew Point: 32°   Wind: 14mph
Humidity: 83%   Direction: 200°SSW
Pressure: 30.41"   Gusts: NA
Location:  43.4056°N, 111.297°W
Report Text: KDIJ 251956Z AUTO 20012KT 10SM FEW049 03/00 A3041 RMK AO2 T00270000 SLP296
Loading
Personal Weather Stations






























Interactive Weather Map New forecast layout! Learn more

10-Day Weather Forecast

Advertisements
Track Severe Weather on mobile